sensor_id;sensor_type;location;lat;lon;timestamp;P1;durP1;ratioP1;P2;durP2;ratioP2
6356;SDS011;3211;53.452;-2.264;2024-02-21T00:02:04;6.47;;;4.33;;
6356;SDS011;3211;53.452;-2.264;2024-02-21T00:04:51;9.63;;;5.43;;
6356;SDS011;3211;53.452;-2.264;2024-02-21T00:07:39;8.37;;;5.50;;
6356;SDS011;3211;53.452;-2.264;2024-02-21T00:10:26;10.70;;;5.37;;
6356;SDS011;3211;53.452;-2.264;2024-02-21T00:13:14;8.97;;;4.97;;
6356;SDS011;3211;53.452;-2.264;2024-02-21T00:16:01;12.27;;;5.93;;
6356;SDS011;3211;53.452;-2.264;2024-02-21T00:18:50;12.87;;;6.40;;
6356;SDS011;3211;53.452;-2.264;2024-02-21T00:21:37;9.67;;;5.57;;
6356;SDS011;3211;53.452;-2.264;2024-02-21T00:24:25;9.73;;;5.20;;
6356;SDS011;3211;53.452;-2.264;2024-02-21T00:27:12;7.77;;;4.70;;
6356;SDS011;3211;53.452;-2.264;2024-02-21T00:29:59;7.70;;;5.60;;
6356;SDS011;3211;53.452;-2.264;2024-02-21T00:32:46;10.13;;;5.70;;
6356;SDS011;3211;53.452;-2.264;2024-02-21T00:35:35;12.60;;;6.20;;
6356;SDS011;3211;53.452;-2.264;2024-02-21T00:38:23;12.00;;;5.70;;
6356;SDS011;3211;53.452;-2.264;2024-02-21T00:41:10;15.00;;;7.27;;
6356;SDS011;3211;53.452;-2.264;2024-02-21T00:43:57;9.63;;;5.43;;
6356;SDS011;3211;53.452;-2.264;2024-02-21T00:46:45;6.77;;;4.80;;
6356;SDS011;3211;53.452;-2.264;2024-02-21T00:49:32;6.03;;;4.20;;
6356;SDS011;3211;53.452;-2.264;2024-02-21T00:52:21;6.17;;;3.90;;
6356;SDS011;3211;53.452;-2.264;2024-02-21T00:55:08;3.60;;;3.30;;
6356;SDS011;3211;53.452;-2.264;2024-02-21T00:57:56;3.77;;;3.17;;
6356;SDS011;3211;53.452;-2.264;2024-02-21T01:00:43;5.37;;;3.27;;
6356;SDS011;3211;53.452;-2.264;2024-02-21T01:03:31;3.60;;;3.00;;
6356;SDS011;3211;53.452;-2.264;2024-02-21T01:06:18;3.90;;;3.50;;
6356;SDS011;3211;53.452;-2.264;2024-02-21T01:09:07;3.43;;;2.90;;
6356;SDS011;3211;53.452;-2.264;2024-02-21T01:11:54;6.20;;;3.53;;
6356;SDS011;3211;53.452;-2.264;2024-02-21T01:14:41;4.07;;;3.67;;
6356;SDS011;3211;53.452;-2.264;2024-02-21T01:17:29;4.30;;;3.40;;
6356;SDS011;3211;53.452;-2.264;2024-02-21T01:20:16;3.73;;;3.43;;
6356;SDS011;3211;53.452;-2.264;2024-02-21T01:23:03;3.70;;;3.07;;
6356;SDS011;3211;53.452;-2.264;2024-02-21T01:25:52;5.03;;;3.63;;
6356;SDS011;3211;53.452;-2.264;2024-02-21T01:28:40;5.90;;;4.07;;
6356;SDS011;3211;53.452;-2.264;2024-02-21T01:31:28;3.83;;;3.43;;
6356;SDS011;3211;53.452;-2.264;2024-02-21T01:34:16;4.70;;;3.80;;
6356;SDS011;3211;53.452;-2.264;2024-02-21T01:37:03;4.63;;;3.67;;
6356;SDS011;3211;53.452;-2.264;2024-02-21T01:39:52;4.83;;;3.97;;
6356;SDS011;3211;53.452;-2.264;2024-02-21T01:42:42;4.97;;;4.47;;
6356;SDS011;3211;53.452;-2.264;2024-02-21T01:45:29;7.07;;;5.13;;
6356;SDS011;3211;53.452;-2.264;2024-02-21T01:48:17;6.73;;;4.57;;
6356;SDS011;3211;53.452;-2.264;2024-02-21T01:51:05;7.73;;;5.40;;
6356;SDS011;3211;53.452;-2.264;2024-02-21T01:53:52;11.33;;;5.60;;
6356;SDS011;3211;53.452;-2.264;2024-02-21T01:56:41;7.37;;;5.67;;
6356;SDS011;3211;53.452;-2.264;2024-02-21T01:59:30;8.43;;;5.63;;
6356;SDS011;3211;53.452;-2.264;2024-02-21T02:02:18;7.43;;;5.37;;
6356;SDS011;3211;53.452;-2.264;2024-02-21T02:05:06;6.80;;;5.53;;
6356;SDS011;3211;53.452;-2.264;2024-02-21T02:07:55;7.50;;;5.63;;
6356;SDS011;3211;53.452;-2.264;2024-02-21T02:10:42;6.10;;;4.80;;
6356;SDS011;3211;53.452;-2.264;2024-02-21T02:13:30;9.77;;;5.60;;
6356;SDS011;3211;53.452;-2.264;2024-02-21T02:16:19;9.53;;;5.17;;
6356;SDS011;3211;53.452;-2.264;2024-02-21T02:19:06;6.90;;;4.67;;
6356;SDS011;3211;53.452;-2.264;2024-02-21T02:22:00;4.90;;;4.37;;
6356;SDS011;3211;53.452;-2.264;2024-02-21T02:24:57;5.50;;;4.20;;
6356;SDS011;3211;53.452;-2.264;2024-02-21T02:27:44;5.90;;;4.43;;
6356;SDS011;3211;53.452;-2.264;2024-02-21T02:30:32;4.10;;;3.70;;
6356;SDS011;3211;53.452;-2.264;2024-02-21T02:33:21;4.47;;;3.40;;
6356;SDS011;3211;53.452;-2.264;2024-02-21T02:36:09;4.47;;;3.50;;
6356;SDS011;3211;53.452;-2.264;2024-02-21T02:38:56;5.23;;;3.60;;
6356;SDS011;3211;53.452;-2.264;2024-02-21T02:41:45;6.30;;;3.80;;
6356;SDS011;3211;53.452;-2.264;2024-02-21T02:44:32;3.70;;;3.07;;
6356;SDS011;3211;53.452;-2.264;2024-02-21T02:47:20;4.60;;;3.20;;
6356;SDS011;3211;53.452;-2.264;2024-02-21T02:50:07;3.47;;;2.70;;
6356;SDS011;3211;53.452;-2.264;2024-02-21T02:52:56;2.70;;;2.50;;
6356;SDS011;3211;53.452;-2.264;2024-02-21T02:55:43;3.10;;;2.47;;
6356;SDS011;3211;53.452;-2.264;2024-02-21T02:58:31;2.60;;;2.40;;
6356;SDS011;3211;53.452;-2.264;2024-02-21T03:01:20;2.80;;;2.60;;
6356;SDS011;3211;53.452;-2.264;2024-02-21T03:04:07;3.20;;;2.70;;
6356;SDS011;3211;53.452;-2.264;2024-02-21T03:06:55;4.10;;;2.50;;
6356;SDS011;3211;53.452;-2.264;2024-02-21T03:09:42;4.53;;;2.80;;
6356;SDS011;3211;53.452;-2.264;2024-02-21T03:12:29;4.67;;;2.40;;
6356;SDS011;3211;53.452;-2.264;2024-02-21T03:15:18;3.30;;;2.83;;
6356;SDS011;3211;53.452;-2.264;2024-02-21T03:18:05;4.93;;;2.70;;
6356;SDS011;3211;53.452;-2.264;2024-02-21T03:20:53;4.27;;;2.83;;
6356;SDS011;3211;53.452;-2.264;2024-02-21T03:23:40;3.20;;;2.90;;
6356;SDS011;3211;53.452;-2.264;2024-02-21T03:26:27;4.63;;;3.03;;
6356;SDS011;3211;53.452;-2.264;2024-02-21T03:29:15;2.93;;;2.63;;
6356;SDS011;3211;53.452;-2.264;2024-02-21T03:32:04;3.97;;;3.00;;
6356;SDS011;3211;53.452;-2.264;2024-02-21T03:34:52;3.40;;;2.77;;
6356;SDS011;3211;53.452;-2.264;2024-02-21T03:37:40;3.00;;;2.70;;
6356;SDS011;3211;53.452;-2.264;2024-02-21T03:40:27;3.37;;;2.43;;
6356;SDS011;3211;53.452;-2.264;2024-02-21T03:43:15;2.60;;;2.40;;
6356;SDS011;3211;53.452;-2.264;2024-02-21T03:46:02;2.50;;;2.30;;
6356;SDS011;3211;53.452;-2.264;2024-02-21T03:48:51;2.47;;;2.13;;
6356;SDS011;3211;53.452;-2.264;2024-02-21T03:51:39;3.67;;;2.13;;
6356;SDS011;3211;53.452;-2.264;2024-02-21T03:54:26;2.40;;;2.13;;
6356;SDS011;3211;53.452;-2.264;2024-02-21T03:57:14;2.60;;;2.10;;
6356;SDS011;3211;53.452;-2.264;2024-02-21T04:00:01;4.20;;;2.03;;
6356;SDS011;3211;53.452;-2.264;2024-02-21T04:02:49;2.57;;;1.97;;
6356;SDS011;3211;53.452;-2.264;2024-02-21T04:05:38;3.10;;;2.20;;
6356;SDS011;3211;53.452;-2.264;2024-02-21T04:08:25;3.17;;;1.90;;
6356;SDS011;3211;53.452;-2.264;2024-02-21T04:11:12;2.00;;;1.67;;
6356;SDS011;3211;53.452;-2.264;2024-02-21T04:14:00;1.90;;;1.80;;
6356;SDS011;3211;53.452;-2.264;2024-02-21T04:16:47;2.80;;;1.80;;
6356;SDS011;3211;53.452;-2.264;2024-02-21T04:19:34;4.90;;;2.07;;
6356;SDS011;3211;53.452;-2.264;2024-02-21T04:22:23;3.40;;;2.30;;
6356;SDS011;3211;53.452;-2.264;2024-02-21T04:25:10;6.93;;;2.40;;
6356;SDS011;3211;53.452;-2.264;2024-02-21T04:27:58;2.17;;;1.97;;
6356;SDS011;3211;53.452;-2.264;2024-02-21T04:30:46;2.53;;;1.90;;
6356;SDS011;3211;53.452;-2.264;2024-02-21T04:33:33;2.33;;;2.00;;
6356;SDS011;3211;53.452;-2.264;2024-02-21T04:36:20;3.20;;;1.60;;
6356;SDS011;3211;53.452;-2.264;2024-02-21T04:39:09;2.03;;;1.70;;
6356;SDS011;3211;53.452;-2.264;2024-02-21T04:41:56;1.77;;;1.43;;
6356;SDS011;3211;53.452;-2.264;2024-02-21T04:44:44;2.20;;;1.50;;
6356;SDS011;3211;53.452;-2.264;2024-02-21T04:47:32;1.90;;;1.60;;
6356;SDS011;3211;53.452;-2.264;2024-02-21T04:50:20;4.60;;;1.60;;
6356;SDS011;3211;53.452;-2.264;2024-02-21T04:53:07;1.20;;;1.10;;
6356;SDS011;3211;53.452;-2.264;2024-02-21T04:55:56;1.30;;;1.20;;
6356;SDS011;3211;53.452;-2.264;2024-02-21T04:58:43;2.30;;;1.60;;
6356;SDS011;3211;53.452;-2.264;2024-02-21T05:01:31;2.03;;;1.60;;
6356;SDS011;3211;53.452;-2.264;2024-02-21T05:04:18;1.63;;;1.20;;
6356;SDS011;3211;53.452;-2.264;2024-02-21T05:07:06;1.20;;;1.10;;
6356;SDS011;3211;53.452;-2.264;2024-02-21T05:09:53;1.40;;;1.30;;
6356;SDS011;3211;53.452;-2.264;2024-02-21T05:12:42;3.97;;;1.47;;
6356;SDS011;3211;53.452;-2.264;2024-02-21T05:15:29;1.50;;;1.40;;
6356;SDS011;3211;53.452;-2.264;2024-02-21T05:18:18;1.83;;;1.13;;
6356;SDS011;3211;53.452;-2.264;2024-02-21T05:21:06;1.23;;;1.10;;
6356;SDS011;3211;53.452;-2.264;2024-02-21T05:23:53;1.10;;;1.00;;
6356;SDS011;3211;53.452;-2.264;2024-02-21T05:26:41;1.20;;;1.00;;
6356;SDS011;3211;53.452;-2.264;2024-02-21T05:29:29;1.00;;;0.90;;
6356;SDS011;3211;53.452;-2.264;2024-02-21T05:32:17;2.07;;;0.90;;
6356;SDS011;3211;53.452;-2.264;2024-02-21T05:35:04;1.10;;;1.00;;
6356;SDS011;3211;53.452;-2.264;2024-02-21T05:37:52;0.90;;;0.90;;
6356;SDS011;3211;53.452;-2.264;2024-02-21T05:40:39;1.30;;;1.10;;
6356;SDS011;3211;53.452;-2.264;2024-02-21T05:43:27;1.00;;;0.90;;
6356;SDS011;3211;53.452;-2.264;2024-02-21T05:46:18;1.27;;;1.17;;
6356;SDS011;3211;53.452;-2.264;2024-02-21T05:49:05;0.97;;;0.93;;
6356;SDS011;3211;53.452;-2.264;2024-02-21T05:51:53;1.17;;;1.07;;
6356;SDS011;3211;53.452;-2.264;2024-02-21T05:54:40;1.10;;;1.00;;
6356;SDS011;3211;53.452;-2.264;2024-02-21T05:57:28;1.67;;;1.10;;
6356;SDS011;3211;53.452;-2.264;2024-02-21T06:00:16;1.10;;;1.00;;
6356;SDS011;3211;53.452;-2.264;2024-02-21T06:03:05;1.07;;;0.93;;
6356;SDS011;3211;53.452;-2.264;2024-02-21T06:05:52;1.00;;;0.90;;
6356;SDS011;3211;53.452;-2.264;2024-02-21T06:08:40;1.00;;;0.90;;
6356;SDS011;3211;53.452;-2.264;2024-02-21T06:11:27;0.97;;;0.87;;
6356;SDS011;3211;53.452;-2.264;2024-02-21T06:14:14;1.10;;;1.00;;
6356;SDS011;3211;53.452;-2.264;2024-02-21T06:17:02;1.27;;;0.97;;
6356;SDS011;3211;53.452;-2.264;2024-02-21T06:19:51;1.00;;;0.90;;
6356;SDS011;3211;53.452;-2.264;2024-02-21T06:22:38;1.10;;;1.00;;
6356;SDS011;3211;53.452;-2.264;2024-02-21T06:25:25;1.00;;;0.90;;
6356;SDS011;3211;53.452;-2.264;2024-02-21T06:28:13;1.77;;;0.90;;
6356;SDS011;3211;53.452;-2.264;2024-02-21T06:31:00;1.10;;;1.00;;
6356;SDS011;3211;53.452;-2.264;2024-02-21T06:33:47;1.10;;;1.00;;
6356;SDS011;3211;53.452;-2.264;2024-02-21T06:36:36;1.00;;;0.90;;
6356;SDS011;3211;53.452;-2.264;2024-02-21T06:39:24;1.57;;;0.93;;
6356;SDS011;3211;53.452;-2.264;2024-02-21T06:42:11;1.10;;;1.00;;
6356;SDS011;3211;53.452;-2.264;2024-02-21T06:44:58;1.10;;;1.00;;
6356;SDS011;3211;53.452;-2.264;2024-02-21T06:47:46;0.80;;;0.80;;
6356;SDS011;3211;53.452;-2.264;2024-02-21T06:50:33;1.10;;;1.00;;
6356;SDS011;3211;53.452;-2.264;2024-02-21T06:53:22;1.17;;;0.90;;
6356;SDS011;3211;53.452;-2.264;2024-02-21T06:56:09;1.20;;;1.10;;
6356;SDS011;3211;53.452;-2.264;2024-02-21T06:58:57;1.67;;;1.00;;
6356;SDS011;3211;53.452;-2.264;2024-02-21T07:01:45;1.10;;;0.90;;
6356;SDS011;3211;53.452;-2.264;2024-02-21T07:04:33;2.03;;;1.00;;
6356;SDS011;3211;53.452;-2.264;2024-02-21T07:07:21;1.30;;;1.20;;
6356;SDS011;3211;53.452;-2.264;2024-02-21T07:10:10;1.07;;;0.97;;
6356;SDS011;3211;53.452;-2.264;2024-02-21T07:12:58;5.20;;;1.27;;
6356;SDS011;3211;53.452;-2.264;2024-02-21T07:15:45;1.00;;;0.90;;
6356;SDS011;3211;53.452;-2.264;2024-02-21T07:18:33;1.40;;;1.30;;
6356;SDS011;3211;53.452;-2.264;2024-02-21T07:21:20;1.53;;;1.00;;
6356;SDS011;3211;53.452;-2.264;2024-02-21T07:24:07;1.40;;;1.20;;
6356;SDS011;3211;53.452;-2.264;2024-02-21T07:26:56;2.07;;;1.30;;
6356;SDS011;3211;53.452;-2.264;2024-02-21T07:29:49;3.90;;;1.17;;
6356;SDS011;3211;53.452;-2.264;2024-02-21T07:32:36;1.20;;;1.10;;
6356;SDS011;3211;53.452;-2.264;2024-02-21T07:35:24;2.80;;;1.33;;
6356;SDS011;3211;53.452;-2.264;2024-02-21T07:38:11;2.93;;;1.30;;
6356;SDS011;3211;53.452;-2.264;2024-02-21T07:40:59;3.27;;;1.53;;
6356;SDS011;3211;53.452;-2.264;2024-02-21T07:43:48;5.20;;;1.40;;
6356;SDS011;3211;53.452;-2.264;2024-02-21T07:46:37;1.43;;;1.33;;
6356;SDS011;3211;53.452;-2.264;2024-02-21T07:49:24;2.43;;;1.00;;
6356;SDS011;3211;53.452;-2.264;2024-02-21T07:52:11;3.10;;;1.40;;
6356;SDS011;3211;53.452;-2.264;2024-02-21T07:54:59;1.83;;;1.40;;
6356;SDS011;3211;53.452;-2.264;2024-02-21T07:57:46;2.50;;;1.20;;
6356;SDS011;3211;53.452;-2.264;2024-02-21T08:00:36;4.20;;;1.20;;
6356;SDS011;3211;53.452;-2.264;2024-02-21T08:03:23;1.50;;;1.40;;
6356;SDS011;3211;53.452;-2.264;2024-02-21T08:06:11;1.47;;;1.37;;
6356;SDS011;3211;53.452;-2.264;2024-02-21T08:08:59;1.93;;;1.50;;
6356;SDS011;3211;53.452;-2.264;2024-02-21T08:11:48;3.27;;;1.60;;
6356;SDS011;3211;53.452;-2.264;2024-02-21T08:14:36;2.30;;;1.30;;
6356;SDS011;3211;53.452;-2.264;2024-02-21T08:17:24;2.63;;;1.50;;
6356;SDS011;3211;53.452;-2.264;2024-02-21T08:20:11;2.00;;;1.37;;
6356;SDS011;3211;53.452;-2.264;2024-02-21T08:22:59;3.00;;;2.03;;
6356;SDS011;3211;53.452;-2.264;2024-02-21T08:25:46;1.60;;;1.50;;
6356;SDS011;3211;53.452;-2.264;2024-02-21T08:28:34;3.33;;;1.47;;
6356;SDS011;3211;53.452;-2.264;2024-02-21T08:31:21;3.10;;;1.20;;
6356;SDS011;3211;53.452;-2.264;2024-02-21T08:34:11;1.20;;;1.10;;
6356;SDS011;3211;53.452;-2.264;2024-02-21T08:36:58;1.43;;;1.30;;
6356;SDS011;3211;53.452;-2.264;2024-02-21T08:39:47;3.97;;;1.90;;
6356;SDS011;3211;53.452;-2.264;2024-02-21T08:42:34;2.17;;;1.20;;
6356;SDS011;3211;53.452;-2.264;2024-02-21T08:45:22;2.00;;;1.43;;
6356;SDS011;3211;53.452;-2.264;2024-02-21T08:48:09;1.33;;;1.20;;
6356;SDS011;3211;53.452;-2.264;2024-02-21T08:50:58;1.00;;;0.90;;
6356;SDS011;3211;53.452;-2.264;2024-02-21T08:53:46;1.20;;;1.10;;
6356;SDS011;3211;53.452;-2.264;2024-02-21T08:56:33;2.13;;;1.20;;
6356;SDS011;3211;53.452;-2.264;2024-02-21T08:59:20;1.40;;;1.07;;
6356;SDS011;3211;53.452;-2.264;2024-02-21T09:02:08;1.00;;;0.90;;
6356;SDS011;3211;53.452;-2.264;2024-02-21T09:04:55;1.20;;;1.10;;
6356;SDS011;3211;53.452;-2.264;2024-02-21T09:07:44;2.40;;;1.10;;
6356;SDS011;3211;53.452;-2.264;2024-02-21T09:10:31;1.43;;;1.10;;
6356;SDS011;3211;53.452;-2.264;2024-02-21T09:13:18;2.57;;;1.40;;
6356;SDS011;3211;53.452;-2.264;2024-02-21T09:16:06;1.27;;;0.90;;
6356;SDS011;3211;53.452;-2.264;2024-02-21T09:18:54;1.00;;;0.90;;
6356;SDS011;3211;53.452;-2.264;2024-02-21T09:21:43;2.03;;;1.00;;
6356;SDS011;3211;53.452;-2.264;2024-02-21T09:24:31;2.23;;;1.23;;
6356;SDS011;3211;53.452;-2.264;2024-02-21T09:27:18;1.30;;;1.20;;
6356;SDS011;3211;53.452;-2.264;2024-02-21T09:30:06;0.90;;;0.90;;
6356;SDS011;3211;53.452;-2.264;2024-02-21T09:32:54;1.40;;;1.00;;
6356;SDS011;3211;53.452;-2.264;2024-02-21T09:35:43;1.50;;;1.10;;
6356;SDS011;3211;53.452;-2.264;2024-02-21T09:38:31;1.70;;;1.20;;
6356;SDS011;3211;53.452;-2.264;2024-02-21T09:41:23;2.80;;;1.00;;
6356;SDS011;3211;53.452;-2.264;2024-02-21T09:44:13;1.50;;;1.07;;
6356;SDS011;3211;53.452;-2.264;2024-02-21T09:47:02;1.57;;;1.13;;
6356;SDS011;3211;53.452;-2.264;2024-02-21T09:49:50;1.10;;;1.00;;
6356;SDS011;3211;53.452;-2.264;2024-02-21T09:52:38;1.63;;;1.10;;
6356;SDS011;3211;53.452;-2.264;2024-02-21T09:55:26;1.40;;;1.10;;
6356;SDS011;3211;53.452;-2.264;2024-02-21T09:58:19;1.10;;;1.00;;
6356;SDS011;3211;53.452;-2.264;2024-02-21T10:01:06;1.23;;;0.80;;
6356;SDS011;3211;53.452;-2.264;2024-02-21T10:03:54;1.37;;;1.00;;
6356;SDS011;3211;53.452;-2.264;2024-02-21T10:06:41;1.50;;;0.93;;
6356;SDS011;3211;53.452;-2.264;2024-02-21T10:09:28;1.30;;;1.00;;
6356;SDS011;3211;53.452;-2.264;2024-02-21T10:12:16;6.33;;;1.50;;
6356;SDS011;3211;53.452;-2.264;2024-02-21T10:15:06;1.27;;;1.00;;
6356;SDS011;3211;53.452;-2.264;2024-02-21T10:17:58;1.37;;;0.90;;
6356;SDS011;3211;53.452;-2.264;2024-02-21T10:20:46;1.30;;;1.00;;
6356;SDS011;3211;53.452;-2.264;2024-02-21T10:23:43;1.30;;;0.90;;
6356;SDS011;3211;53.452;-2.264;2024-02-21T10:26:31;1.33;;;1.10;;
6356;SDS011;3211;53.452;-2.264;2024-02-21T10:29:18;0.97;;;0.87;;
6356;SDS011;3211;53.452;-2.264;2024-02-21T10:32:09;1.67;;;1.00;;
6356;SDS011;3211;53.452;-2.264;2024-02-21T10:35:01;1.13;;;0.97;;
6356;SDS011;3211;53.452;-2.264;2024-02-21T10:37:50;1.13;;;0.90;;
6356;SDS011;3211;53.452;-2.264;2024-02-21T10:40:41;1.13;;;0.90;;
6356;SDS011;3211;53.452;-2.264;2024-02-21T10:43:28;1.70;;;1.00;;
6356;SDS011;3211;53.452;-2.264;2024-02-21T10:46:21;3.23;;;1.00;;
6356;SDS011;3211;53.452;-2.264;2024-02-21T10:49:13;0.80;;;0.80;;
6356;SDS011;3211;53.452;-2.264;2024-02-21T10:52:11;0.97;;;0.90;;
6356;SDS011;3211;53.452;-2.264;2024-02-21T10:55:03;2.40;;;1.23;;
6356;SDS011;3211;53.452;-2.264;2024-02-21T10:57:51;1.00;;;0.90;;
6356;SDS011;3211;53.452;-2.264;2024-02-21T11:00:38;1.00;;;0.90;;
6356;SDS011;3211;53.452;-2.264;2024-02-21T11:03:28;1.30;;;1.20;;
6356;SDS011;3211;53.452;-2.264;2024-02-21T11:06:17;0.90;;;0.90;;
6356;SDS011;3211;53.452;-2.264;2024-02-21T11:09:06;1.00;;;0.90;;
6356;SDS011;3211;53.452;-2.264;2024-02-21T11:11:55;1.13;;;1.03;;
6356;SDS011;3211;53.452;-2.264;2024-02-21T11:14:44;0.90;;;0.80;;
6356;SDS011;3211;53.452;-2.264;2024-02-21T11:17:31;2.13;;;1.00;;
6356;SDS011;3211;53.452;-2.264;2024-02-21T11:20:19;0.80;;;0.80;;
6356;SDS011;3211;53.452;-2.264;2024-02-21T11:23:08;0.90;;;0.80;;
6356;SDS011;3211;53.452;-2.264;2024-02-21T11:26:03;1.00;;;0.90;;
6356;SDS011;3211;53.452;-2.264;2024-02-21T11:28:58;0.83;;;0.83;;
6356;SDS011;3211;53.452;-2.264;2024-02-21T11:31:46;1.00;;;0.90;;
6356;SDS011;3211;53.452;-2.264;2024-02-21T11:34:33;1.07;;;0.97;;
6356;SDS011;3211;53.452;-2.264;2024-02-21T11:37:21;1.93;;;0.90;;
6356;SDS011;3211;53.452;-2.264;2024-02-21T11:40:12;1.00;;;0.90;;
6356;SDS011;3211;53.452;-2.264;2024-02-21T11:42:59;1.20;;;1.10;;
6356;SDS011;3211;53.452;-2.264;2024-02-21T11:45:47;1.07;;;0.97;;
6356;SDS011;3211;53.452;-2.264;2024-02-21T11:48:34;1.00;;;0.90;;
6356;SDS011;3211;53.452;-2.264;2024-02-21T11:51:24;1.03;;;0.93;;
6356;SDS011;3211;53.452;-2.264;2024-02-21T11:54:11;0.80;;;0.73;;
6356;SDS011;3211;53.452;-2.264;2024-02-21T11:57:03;0.80;;;0.80;;
6356;SDS011;3211;53.452;-2.264;2024-02-21T11:59:50;1.00;;;0.90;;
6356;SDS011;3211;53.452;-2.264;2024-02-21T12:02:40;0.97;;;0.90;;
6356;SDS011;3211;53.452;-2.264;2024-02-21T12:05:27;1.20;;;1.10;;
6356;SDS011;3211;53.452;-2.264;2024-02-21T12:08:15;0.80;;;0.80;;
6356;SDS011;3211;53.452;-2.264;2024-02-21T12:11:03;1.00;;;0.80;;
6356;SDS011;3211;53.452;-2.264;2024-02-21T12:14:01;0.80;;;0.80;;
6356;SDS011;3211;53.452;-2.264;2024-02-21T12:16:50;2.27;;;0.97;;
6356;SDS011;3211;53.452;-2.264;2024-02-21T12:19:37;1.00;;;0.90;;
6356;SDS011;3211;53.452;-2.264;2024-02-21T12:22:25;1.10;;;1.00;;
6356;SDS011;3211;53.452;-2.264;2024-02-21T12:25:16;1.77;;;0.97;;
6356;SDS011;3211;53.452;-2.264;2024-02-21T12:28:04;1.40;;;1.00;;
6356;SDS011;3211;53.452;-2.264;2024-02-21T12:30:53;1.57;;;1.00;;
6356;SDS011;3211;53.452;-2.264;2024-02-21T12:33:41;1.00;;;0.90;;
6356;SDS011;3211;53.452;-2.264;2024-02-21T12:36:28;0.90;;;0.80;;
6356;SDS011;3211;53.452;-2.264;2024-02-21T12:39:15;0.80;;;0.80;;
6356;SDS011;3211;53.452;-2.264;2024-02-21T12:42:03;0.80;;;0.80;;
6356;SDS011;3211;53.452;-2.264;2024-02-21T12:44:50;0.80;;;0.80;;
6356;SDS011;3211;53.452;-2.264;2024-02-21T12:47:40;1.10;;;0.93;;
6356;SDS011;3211;53.452;-2.264;2024-02-21T12:50:27;2.00;;;0.90;;
6356;SDS011;3211;53.452;-2.264;2024-02-21T12:53:14;0.80;;;0.70;;
6356;SDS011;3211;53.452;-2.264;2024-02-21T12:56:02;0.80;;;0.80;;
6356;SDS011;3211;53.452;-2.264;2024-02-21T12:58:50;0.90;;;0.83;;
6356;SDS011;3211;53.452;-2.264;2024-02-21T13:01:37;0.90;;;0.90;;
6356;SDS011;3211;53.452;-2.264;2024-02-21T13:04:26;2.10;;;0.90;;
6356;SDS011;3211;53.452;-2.264;2024-02-21T13:07:13;1.00;;;0.90;;
6356;SDS011;3211;53.452;-2.264;2024-02-21T13:10:01;1.30;;;1.20;;
6356;SDS011;3211;53.452;-2.264;2024-02-21T13:12:49;1.20;;;1.10;;
6356;SDS011;3211;53.452;-2.264;2024-02-21T13:15:36;1.07;;;0.97;;
6356;SDS011;3211;53.452;-2.264;2024-02-21T13:18:28;1.50;;;1.20;;
6356;SDS011;3211;53.452;-2.264;2024-02-21T13:21:16;1.20;;;1.03;;
6356;SDS011;3211;53.452;-2.264;2024-02-21T13:24:04;1.20;;;1.10;;
6356;SDS011;3211;53.452;-2.264;2024-02-21T13:26:51;1.10;;;1.00;;
6356;SDS011;3211;53.452;-2.264;2024-02-21T13:29:38;1.33;;;1.10;;
6356;SDS011;3211;53.452;-2.264;2024-02-21T13:32:26;1.00;;;0.90;;
6356;SDS011;3211;53.452;-2.264;2024-02-21T13:35:13;1.00;;;0.90;;
6356;SDS011;3211;53.452;-2.264;2024-02-21T13:38:02;1.03;;;0.93;;
6356;SDS011;3211;53.452;-2.264;2024-02-21T13:40:50;1.20;;;1.00;;
6356;SDS011;3211;53.452;-2.264;2024-02-21T13:43:37;1.00;;;0.90;;
6356;SDS011;3211;53.452;-2.264;2024-02-21T13:46:24;1.53;;;1.00;;
6356;SDS011;3211;53.452;-2.264;2024-02-21T13:49:12;4.40;;;1.10;;
6356;SDS011;3211;53.452;-2.264;2024-02-21T13:51:59;1.10;;;1.00;;
6356;SDS011;3211;53.452;-2.264;2024-02-21T13:54:48;1.20;;;1.10;;
6356;SDS011;3211;53.452;-2.264;2024-02-21T13:57:35;3.23;;;1.50;;
6356;SDS011;3211;53.452;-2.264;2024-02-21T14:00:22;1.47;;;1.37;;
6356;SDS011;3211;53.452;-2.264;2024-02-21T14:03:10;1.30;;;1.20;;
6356;SDS011;3211;53.452;-2.264;2024-02-21T14:05:57;2.13;;;1.30;;
6356;SDS011;3211;53.452;-2.264;2024-02-21T14:08:45;1.37;;;1.27;;
6356;SDS011;3211;53.452;-2.264;2024-02-21T14:11:33;1.30;;;1.20;;
6356;SDS011;3211;53.452;-2.264;2024-02-21T14:14:21;1.63;;;1.30;;
6356;SDS011;3211;53.452;-2.264;2024-02-21T14:17:08;1.10;;;1.00;;
6356;SDS011;3211;53.452;-2.264;2024-02-21T14:19:55;1.27;;;1.17;;
6356;SDS011;3211;53.452;-2.264;2024-02-21T14:22:42;1.63;;;1.20;;
6356;SDS011;3211;53.452;-2.264;2024-02-21T14:25:30;1.30;;;1.20;;
6356;SDS011;3211;53.452;-2.264;2024-02-21T14:28:20;1.20;;;1.10;;
6356;SDS011;3211;53.452;-2.264;2024-02-21T14:31:07;1.80;;;1.20;;
6356;SDS011;3211;53.452;-2.264;2024-02-21T14:33:55;1.20;;;1.10;;
6356;SDS011;3211;53.452;-2.264;2024-02-21T14:36:43;1.20;;;1.10;;
6356;SDS011;3211;53.452;-2.264;2024-02-21T14:39:30;1.73;;;1.27;;
6356;SDS011;3211;53.452;-2.264;2024-02-21T14:42:19;1.23;;;1.13;;
6356;SDS011;3211;53.452;-2.264;2024-02-21T14:45:09;2.33;;;1.33;;
6356;SDS011;3211;53.452;-2.264;2024-02-21T14:47:56;1.40;;;1.30;;
6356;SDS011;3211;53.452;-2.264;2024-02-21T14:50:43;1.47;;;1.37;;
6356;SDS011;3211;53.452;-2.264;2024-02-21T14:53:31;1.20;;;1.10;;
6356;SDS011;3211;53.452;-2.264;2024-02-21T14:56:18;1.20;;;1.10;;
6356;SDS011;3211;53.452;-2.264;2024-02-21T14:59:05;1.50;;;1.30;;
6356;SDS011;3211;53.452;-2.264;2024-02-21T15:01:54;1.20;;;1.10;;
6356;SDS011;3211;53.452;-2.264;2024-02-21T15:04:41;1.70;;;1.30;;
6356;SDS011;3211;53.452;-2.264;2024-02-21T15:07:28;2.30;;;1.40;;
6356;SDS011;3211;53.452;-2.264;2024-02-21T15:10:15;2.33;;;1.53;;
6356;SDS011;3211;53.452;-2.264;2024-02-21T15:13:04;3.90;;;1.70;;
6356;SDS011;3211;53.452;-2.264;2024-02-21T15:15:51;1.30;;;1.20;;
6356;SDS011;3211;53.452;-2.264;2024-02-21T15:18:41;2.90;;;1.30;;
6356;SDS011;3211;53.452;-2.264;2024-02-21T15:21:28;5.80;;;1.30;;
6356;SDS011;3211;53.452;-2.264;2024-02-21T15:24:16;2.80;;;1.30;;
6356;SDS011;3211;53.452;-2.264;2024-02-21T15:27:03;3.13;;;1.37;;
6356;SDS011;3211;53.452;-2.264;2024-02-21T15:29:51;3.93;;;1.30;;
6356;SDS011;3211;53.452;-2.264;2024-02-21T15:32:38;2.10;;;1.23;;
6356;SDS011;3211;53.452;-2.264;2024-02-21T15:35:30;3.00;;;1.27;;
6356;SDS011;3211;53.452;-2.264;2024-02-21T15:38:19;3.10;;;1.87;;
6356;SDS011;3211;53.452;-2.264;2024-02-21T15:41:06;4.07;;;1.30;;
6356;SDS011;3211;53.452;-2.264;2024-02-21T15:43:53;4.30;;;1.37;;
6356;SDS011;3211;53.452;-2.264;2024-02-21T15:46:42;2.33;;;1.00;;
6356;SDS011;3211;53.452;-2.264;2024-02-21T15:49:30;1.53;;;1.00;;
6356;SDS011;3211;53.452;-2.264;2024-02-21T15:52:19;6.00;;;1.40;;
6356;SDS011;3211;53.452;-2.264;2024-02-21T15:55:07;1.93;;;1.20;;
6356;SDS011;3211;53.452;-2.264;2024-02-21T15:57:57;1.47;;;1.13;;
6356;SDS011;3211;53.452;-2.264;2024-02-21T16:00:44;3.30;;;1.33;;
6356;SDS011;3211;53.452;-2.264;2024-02-21T16:03:32;5.17;;;1.30;;
6356;SDS011;3211;53.452;-2.264;2024-02-21T16:06:19;2.17;;;1.43;;
6356;SDS011;3211;53.452;-2.264;2024-02-21T16:09:07;1.37;;;1.20;;
6356;SDS011;3211;53.452;-2.264;2024-02-21T16:11:55;2.53;;;1.40;;
6356;SDS011;3211;53.452;-2.264;2024-02-21T16:14:43;1.73;;;1.40;;
6356;SDS011;3211;53.452;-2.264;2024-02-21T16:17:33;3.90;;;1.47;;
6356;SDS011;3211;53.452;-2.264;2024-02-21T16:20:21;2.80;;;1.30;;
6356;SDS011;3211;53.452;-2.264;2024-02-21T16:23:08;2.70;;;1.37;;
6356;SDS011;3211;53.452;-2.264;2024-02-21T16:25:57;3.80;;;1.30;;
6356;SDS011;3211;53.452;-2.264;2024-02-21T16:28:46;3.87;;;1.20;;
6356;SDS011;3211;53.452;-2.264;2024-02-21T16:31:33;1.67;;;1.27;;
6356;SDS011;3211;53.452;-2.264;2024-02-21T16:34:22;4.67;;;1.20;;
6356;SDS011;3211;53.452;-2.264;2024-02-21T16:37:10;1.47;;;1.20;;
6356;SDS011;3211;53.452;-2.264;2024-02-21T16:39:59;2.80;;;1.53;;
6356;SDS011;3211;53.452;-2.264;2024-02-21T16:42:47;3.50;;;1.30;;
6356;SDS011;3211;53.452;-2.264;2024-02-21T16:45:35;1.80;;;1.30;;
6356;SDS011;3211;53.452;-2.264;2024-02-21T16:48:23;3.90;;;1.20;;
6356;SDS011;3211;53.452;-2.264;2024-02-21T16:51:10;4.23;;;1.30;;
6356;SDS011;3211;53.452;-2.264;2024-02-21T16:53:57;2.13;;;1.13;;
6356;SDS011;3211;53.452;-2.264;2024-02-21T16:56:45;1.37;;;1.13;;
6356;SDS011;3211;53.452;-2.264;2024-02-21T16:59:33;2.17;;;1.40;;
6356;SDS011;3211;53.452;-2.264;2024-02-21T17:02:22;2.80;;;1.20;;
6356;SDS011;3211;53.452;-2.264;2024-02-21T17:05:10;4.80;;;1.70;;
6356;SDS011;3211;53.452;-2.264;2024-02-21T17:07:57;4.33;;;1.27;;